createdAt,value
2022-12-25T05:00:26.189Z,100.00
2022-12-25T05:04:37.713Z,100.00
2022-12-25T05:08:49.249Z,100.00
2022-12-25T05:13:00.804Z,100.00
2022-12-25T05:17:12.361Z,100.00
2022-12-25T05:21:23.967Z,100.00
2022-12-25T05:25:39.325Z,100.00
2022-12-25T05:29:50.860Z,100.00
2022-12-25T05:34:03.744Z,100.00
2022-12-25T05:38:15.306Z,100.00
2022-12-25T05:42:26.847Z,100.00
2022-12-25T05:46:38.420Z,100.00
2022-12-25T05:50:50.026Z,100.00
2022-12-25T05:55:01.633Z,100.00
2022-12-25T05:59:13.250Z,100.00
2022-12-25T06:03:25.511Z,100.00
2022-12-25T06:07:37.200Z,100.00
2022-12-25T06:11:48.730Z,100.00
2022-12-25T06:16:03.230Z,100.00
2022-12-25T06:20:14.799Z,100.00
2022-12-25T06:24:26.437Z,100.00
2022-12-25T06:28:38.217Z,100.00
2022-12-25T06:32:51.057Z,100.00
2022-12-25T06:37:02.590Z,100.00
2022-12-25T06:41:17.959Z,100.00
2022-12-25T06:45:29.573Z,100.00
2022-12-25T06:49:41.201Z,100.00
2022-12-25T06:53:53.581Z,100.00
2022-12-25T06:58:05.091Z,100.00
2022-12-25T07:02:20.183Z,100.00
2022-12-25T07:06:31.900Z,100.00
2022-12-25T07:10:43.581Z,100.00
2022-12-25T07:14:55.717Z,100.00
2022-12-25T07:19:07.263Z,100.00
2022-12-25T07:23:18.809Z,100.00
2022-12-25T07:27:30.464Z,100.00
2022-12-25T07:31:42.136Z,100.00
2022-12-25T07:35:53.670Z,100.00
2022-12-25T07:40:05.911Z,100.00
2022-12-25T07:44:17.677Z,100.00
2022-12-25T07:48:29.283Z,100.00
2022-12-25T07:52:43.604Z,100.00
2022-12-25T07:56:55.501Z,100.00
2022-12-25T08:01:11.224Z,100.00
2022-12-25T08:05:22.851Z,100.00
2022-12-25T08:09:35.463Z,100.00
2022-12-25T08:13:46.991Z,100.00
2022-12-25T08:17:58.478Z,100.00
2022-12-25T08:22:10.014Z,100.00
2022-12-25T08:26:23.111Z,100.00
2022-12-25T08:30:34.798Z,100.00
2022-12-25T08:34:46.429Z,100.00
2022-12-25T08:39:02.639Z,100.00
2022-12-25T08:43:14.740Z,100.00
2022-12-25T08:47:26.258Z,100.00
2022-12-25T08:51:37.841Z,100.00
2022-12-25T08:55:49.672Z,100.00
2022-12-25T09:00:01.178Z,100.00
2022-12-25T09:04:12.687Z,100.00
2022-12-25T09:08:24.232Z,100.00
2022-12-25T09:12:35.759Z,100.00
2022-12-25T09:16:49.952Z,100.00
2022-12-25T09:21:07.373Z,100.00
2022-12-25T09:25:18.900Z,100.00
2022-12-25T09:29:30.434Z,100.00
2022-12-25T09:33:41.965Z,100.00
2022-12-25T09:37:53.495Z,100.00
2022-12-25T09:42:14.007Z,100.00
2022-12-25T09:46:34.761Z,100.00
2022-12-25T09:51:04.215Z,100.00
2022-12-25T09:55:21.177Z,100.00
2022-12-25T09:59:32.828Z,100.00
2022-12-25T10:03:53.305Z,100.00
2022-12-25T10:08:13.841Z,100.00
2022-12-25T10:12:40.507Z,100.00
2022-12-25T10:17:04.219Z,100.00
2022-12-25T10:21:18.311Z,100.00
2022-12-25T10:25:30.581Z,100.00
2022-12-25T10:29:45.429Z,100.00
2022-12-25T10:33:57.438Z,100.00
2022-12-25T10:38:17.251Z,99.45
2022-12-25T10:42:39.165Z,99.32
2022-12-25T10:46:54.942Z,99.90
2022-12-25T10:51:07.113Z,99.30
2022-12-25T10:55:25.100Z,98.60
2022-12-25T10:59:56.766Z,98.84
2022-12-25T11:04:18.917Z,98.03
2022-12-25T11:08:34.605Z,97.57
2022-12-25T11:12:46.811Z,97.50
2022-12-25T11:17:09.479Z,97.59
2022-12-25T11:21:36.662Z,97.35
2022-12-25T11:26:02.789Z,97.54
2022-12-25T11:30:16.240Z,96.67
2022-12-25T11:34:35.572Z,95.73
2022-12-25T11:38:47.855Z,94.98
2022-12-25T11:43:08.217Z,93.64
2022-12-25T11:47:36.864Z,92.88
2022-12-25T11:51:53.635Z,92.77
2022-12-25T11:56:21.606Z,91.20
2022-12-25T12:00:35.351Z,90.94
2022-12-25T12:04:54.151Z,90.76
2022-12-25T12:09:24.186Z,90.17
2022-12-25T12:14:01.501Z,90.04
2022-12-25T12:18:28.174Z,90.20
2022-12-25T12:22:48.650Z,88.99
2022-12-25T12:27:15.332Z,88.72
2022-12-25T12:31:42.953Z,87.66
2022-12-25T12:35:54.595Z,87.03
2022-12-25T12:40:21.574Z,85.11
2022-12-25T12:44:34.728Z,86.06
2022-12-25T12:48:49.401Z,85.56
2022-12-25T12:53:17.743Z,85.20
2022-12-25T12:57:34.397Z,85.83
2022-12-25T13:01:57.495Z,85.30
2022-12-25T13:06:25.716Z,86.14
2022-12-25T13:10:43.300Z,86.22
2022-12-25T13:14:55.127Z,85.63
2022-12-25T13:19:11.383Z,85.85
2022-12-25T13:23:34.189Z,86.05
2022-12-25T13:27:45.692Z,85.95
2022-12-25T13:31:58.720Z,85.86
2022-12-25T13:36:12.709Z,85.91
2022-12-25T13:40:28.235Z,86.92
2022-12-25T13:44:42.486Z,86.43
2022-12-25T13:49:01.333Z,86.14
2022-12-25T13:53:16.461Z,85.35
2022-12-25T13:57:39.812Z,85.34
2022-12-25T14:01:53.744Z,85.27
2022-12-25T14:06:16.239Z,85.72
2022-12-25T14:10:32.528Z,85.00
2022-12-25T14:14:44.302Z,85.93
2022-12-25T14:18:59.468Z,85.49
2022-12-25T14:23:16.167Z,85.89
2022-12-25T14:27:32.469Z,85.58
2022-12-25T14:31:46.094Z,85.29
2022-12-25T14:35:59.009Z,85.66
2022-12-25T14:40:25.341Z,84.18
2022-12-25T14:44:39.407Z,85.11
2022-12-25T14:49:03.039Z,85.20
2022-12-25T14:53:21.438Z,85.90
2022-12-25T14:57:37.820Z,86.60
2022-12-25T15:01:56.276Z,87.79
2022-12-25T15:06:20.453Z,87.84
2022-12-25T15:15:04.963Z,88.26
2022-12-25T15:19:26.524Z,88.60
2022-12-25T15:23:39.750Z,89.36
2022-12-25T15:27:51.316Z,89.44
2022-12-25T15:32:02.829Z,89.53
2022-12-25T15:36:14.320Z,89.92
2022-12-25T15:40:25.824Z,90.22
2022-12-25T15:44:37.810Z,90.36
2022-12-25T15:48:49.300Z,89.53
2022-12-25T15:53:00.798Z,89.36
2022-12-25T15:57:22.556Z,89.73
2022-12-25T16:01:34.150Z,89.31
2022-12-25T16:05:45.680Z,89.85
2022-12-25T16:09:57.434Z,90.51
2022-12-25T16:14:09.299Z,90.36
2022-12-25T16:18:21.351Z,90.85
2022-12-25T16:22:39.547Z,91.24
2022-12-25T16:26:51.112Z,90.76
2022-12-25T16:31:02.779Z,90.62
2022-12-25T16:35:14.261Z,90.69
2022-12-25T16:39:25.761Z,90.94
2022-12-25T16:43:37.381Z,90.88
2022-12-25T16:47:49.092Z,90.61
2022-12-25T16:52:00.675Z,90.07
2022-12-25T16:56:16.174Z,89.87
2022-12-25T17:00:27.838Z,89.69
2022-12-25T17:04:39.470Z,89.17
2022-12-25T17:08:52.244Z,89.09
2022-12-25T17:13:03.754Z,89.45
2022-12-25T17:17:15.326Z,89.43
2022-12-25T17:21:28.418Z,89.84
2022-12-25T17:25:39.952Z,89.76
2022-12-25T17:29:51.788Z,90.39
2022-12-25T17:34:04.426Z,90.47
2022-12-25T17:38:15.961Z,90.61
2022-12-25T17:42:27.489Z,90.22
2022-12-25T17:46:39.116Z,90.27
2022-12-25T17:50:50.733Z,90.51
2022-12-25T17:55:02.440Z,90.45
2022-12-25T17:59:18.132Z,91.25
2022-12-25T18:03:30.090Z,91.88
2022-12-25T18:07:41.754Z,91.45
2022-12-25T18:11:53.268Z,91.87
2022-12-25T18:16:07.022Z,92.29
2022-12-25T18:20:18.676Z,91.94
2022-12-25T18:24:30.282Z,91.76
2022-12-25T18:28:43.761Z,91.63
2022-12-25T18:32:55.424Z,91.48
2022-12-25T18:37:06.956Z,91.36
2022-12-25T18:41:19.230Z,92.18
2022-12-25T18:45:30.800Z,91.44
2022-12-25T18:49:42.527Z,91.93
2022-12-25T18:53:54.826Z,91.00
2022-12-25T18:58:06.398Z,90.95
2022-12-25T19:02:18.002Z,89.88
2022-12-25T19:06:31.461Z,90.59
2022-12-25T19:10:43.730Z,90.64
2022-12-25T19:14:55.443Z,90.83
2022-12-25T19:19:06.993Z,90.82
2022-12-25T19:23:20.054Z,90.41
2022-12-25T19:27:31.615Z,90.53
2022-12-25T19:31:43.574Z,90.43
2022-12-25T19:35:59.967Z,90.61
2022-12-25T19:40:11.936Z,90.47
2022-12-25T19:44:23.482Z,90.40
2022-12-25T19:48:35.213Z,90.12
2022-12-25T19:52:46.779Z,90.52
2022-12-25T19:56:58.347Z,90.82
2022-12-25T20:01:16.050Z,90.90
2022-12-25T20:05:29.236Z,90.69
2022-12-25T20:09:40.784Z,91.01
2022-12-25T20:13:52.338Z,90.45
2022-12-25T20:18:04.039Z,90.37
2022-12-25T20:22:15.659Z,90.01
2022-12-25T20:26:30.740Z,89.76
2022-12-25T20:30:42.237Z,89.63
2022-12-25T20:34:53.763Z,89.48
2022-12-25T20:39:08.553Z,88.77
2022-12-25T20:43:20.077Z,88.66
2022-12-25T20:47:31.598Z,89.19
2022-12-25T20:51:43.202Z,88.94
2022-12-25T20:55:54.730Z,89.03
2022-12-25T21:00:07.075Z,88.75
2022-12-25T21:04:18.660Z,88.71
2022-12-25T21:08:30.892Z,88.52
2022-12-25T21:12:42.429Z,88.73
2022-12-25T21:16:53.996Z,89.21
2022-12-25T21:21:07.563Z,89.38
2022-12-25T21:25:19.366Z,88.95
2022-12-25T21:29:31.038Z,88.98
2022-12-25T21:33:51.564Z,89.07
2022-12-25T21:38:03.869Z,89.55
2022-12-25T21:42:15.472Z,88.81
2022-12-25T21:46:27.383Z,89.19
2022-12-25T21:50:57.641Z,89.42
2022-12-25T21:55:09.320Z,89.35
2022-12-25T21:59:22.450Z,89.76
2022-12-25T22:03:34.103Z,90.00
2022-12-25T22:26:06.832Z,90.45
